Al Rekayyat — V7QF3 — position and weather

sailwx.info

Track history (hours):
 
Tides and Currents Weather Stations Pressure Air Temp Water Temp Dewpoint Dewpoint Depression Visibility Wind Speed Wind Dir Waves Ship Positions

Al Rekayyat

Last reported at 2017-Oct-26 18:22 UTC. Time now 2017-Nov-22 05:28 UTC.
Position N 01°21' E 103°16'.
Warning: this ship's position is 26 days out of date.

Length 315 m; draft 9.5 m.

Type: Ship (hazmat cat D). MMSI: 538003347.

Date/timePositionNaut miles runAvg speedWind from/ knotsBaromVisibWave heightAir tempDewpointWater temp
2017-Oct-26 18:22N 01°21' E 103°16'615.6
2017-Oct-26 17:59N 01°17' E 103°21'815.7
2017-Oct-26 17:30N 01°14' E 103°28'713.9
2017-Oct-26 16:59N 01°12' E 103°35'4 8.1
2017-Oct-26 16:30N 01°12' E 103°39'2 2.8
2017-Oct-26 15:56N 01°12' E 103°40'0 0.0
2017-Oct-26 15:30N 01°12' E 103°40'0 0.0
2017-Oct-26 14:57N 01°12' E 103°40'0 0.0
2017-Oct-26 14:30N 01°12' E 103°40'0 0.0
2017-Oct-26 13:58N 01°12' E 103°40'0 0.0
2017-Oct-26 13:28N 01°12' E 103°40'0 0.0
2017-Oct-26 12:58N 01°12' E 103°40'0 0.0
2017-Oct-26 12:29N 01°12' E 103°40'0 0.0
2017-Oct-26 11:59N 01°12' E 103°40'0 0.0
2017-Oct-26 11:29N 01°12' E 103°40'0 0.0
2017-Oct-26 10:57N 01°12' E 103°40'0 0.0
2017-Oct-26 10:30N 01°12' E 103°40'0 0.0
2017-Oct-26 09:54N 01°12' E 103°40'0 0.0
2017-Oct-26 09:31N 01°12' E 103°40'0 0.0
2017-Oct-26 08:55N 01°12' E 103°40'0 0.0
2017-Oct-26 08:25N 01°12' E 103°40'0 0.1
2017-Oct-26 07:59N 01°12' E 103°40'0 0.0
2017-Oct-26 07:29N 01°12' E 103°40'0 0.0
2017-Oct-26 06:59N 01°12' E 103°40'0 0.1
2017-Oct-26 06:30N 01°12' E 103°40'0 0.2
2017-Oct-26 05:54N 01°12' E 103°40'0 0.1
2017-Oct-26 05:30N 01°12' E 103°40'0 0.0
2017-Oct-26 04:57N 01°12' E 103°40'0 0.2
2017-Oct-26 04:22N 01°12' E 103°40'0 0.2
2017-Oct-26 03:58N 01°12' E 103°40'0 0.0
2017-Oct-26 03:28N 01°12' E 103°40'0 0.1
2017-Oct-26 02:56N 01°12' E 103°40'0 0.1
2017-Oct-26 02:29N 01°12' E 103°40'0 0.1
2017-Oct-26 01:56N 01°12' E 103°40'0 0.0
2017-Oct-26 01:27N 01°12' E 103°40'0 0.1
2017-Oct-26 00:54N 01°12' E 103°40'0 0.1
2017-Oct-26 00:30N 01°12' E 103°40'0 0.0
2017-Oct-26 00:00N 01°12' E 103°40'0 0.2
2017-Oct-25 23:30N 01°12' E 103°40'0 0.0
2017-Oct-25 23:00N 01°12' E 103°40'0 0.0
2017-Oct-25 22:30N 01°12' E 103°40'0 0.1
2017-Oct-25 22:00N 01°12' E 103°40'0 0.0
2017-Oct-25 21:30N 01°12' E 103°40'0 0.2
2017-Oct-25 21:00N 01°12' E 103°40'0 0.3
2017-Oct-25 20:30N 01°12' E 103°40'0 0.1
2017-Oct-25 20:01N 01°12' E 103°40'0 0.1
2017-Oct-25 19:30N 01°12' E 103°40'0 0.1
2017-Oct-25 19:00N 01°12' E 103°40'0 0.3
2017-Oct-25 18:30N 01°12' E 103°40'1 2.6
2017-Oct-25 17:59N 01°11' E 103°41'4 8.9
2017-Oct-25 17:30N 01°09' E 103°45'4 8.6
2017-Oct-25 17:01N 01°11' E 103°49'3 6.1
2017-Oct-25 16:30N 01°12' E 103°52'3 6.9
2017-Oct-25 16:00N 01°14' E 103°55'4 8.2
2017-Oct-25 15:30N 01°15' E 103°59'4 8.2
2017-Oct-25 15:00N 01°16' E 104°03'18 8.1
2017-Oct-25 12:49N 01°19' E 104°20'  
2017-Oct-21 12:17N 21°47' E 114°28'516.2
2017-Oct-21 11:59N 21°51' E 114°31'915.4
2017-Oct-21 11:23N 22°00' E 114°31'615.7
2017-Oct-21 11:00N 22°06' E 114°32'816.0
2017-Oct-21 10:30N 22°14' E 114°32'815.7
2017-Oct-21 10:01N 22°22' E 114°30'612.1
2017-Oct-21 09:30N 22°27' E 114°28'5 9.3
2017-Oct-21 09:00N 22°31' E 114°25'3 6.7
2017-Oct-21 08:31N 22°34' E 114°26'0 0.1
2017-Oct-21 08:00N 22°34' E 114°26'0 0.0
2017-Oct-21 07:31N 22°34' E 114°26'0 0.0
2017-Oct-21 07:00N 22°34' E 114°26'0 0.0
2017-Oct-21 06:31N 22°34' E 114°26'0 0.0
2017-Oct-21 06:00N 22°34' E 114°26'0 0.0
2017-Oct-21 05:30N 22°34' E 114°26'0 0.0
2017-Oct-21 05:00N 22°34' E 114°26'0 0.0
2017-Oct-21 04:30N 22°34' E 114°26'0 0.0
2017-Oct-21 04:00N 22°34' E 114°26'0 0.0
2017-Oct-21 03:30N 22°34' E 114°26'0 0.0
2017-Oct-21 03:00N 22°34' E 114°26'0 0.0
2017-Oct-21 02:30N 22°34' E 114°26'0 0.0
2017-Oct-21 02:01N 22°34' E 114°26'0 0.0
2017-Oct-21 01:30N 22°34' E 114°26'0 0.0
2017-Oct-21 01:01N 22°34' E 114°26'0 0.0
2017-Oct-21 00:31N 22°34' E 114°26'0 0.0
2017-Oct-21 00:00N 22°34' E 114°26'0 0.0
2017-Oct-20 23:31N 22°34' E 114°26'0 0.0
2017-Oct-20 23:00N 22°34' E 114°26'0 0.0
2017-Oct-20 22:31N 22°34' E 114°26'0 0.0
2017-Oct-20 22:00N 22°34' E 114°26'0 0.0
2017-Oct-20 21:30N 22°34' E 114°26'0 0.0
2017-Oct-20 21:00N 22°34' E 114°26'0 0.0
2017-Oct-20 20:30N 22°34' E 114°26'0 0.0
2017-Oct-20 20:00N 22°34' E 114°26'0 0.0
2017-Oct-20 19:30N 22°34' E 114°26'0 0.0
2017-Oct-20 19:00N 22°34' E 114°26'0 0.0
2017-Oct-20 18:30N 22°34' E 114°26'0 0.0
2017-Oct-20 18:00N 22°34' E 114°26'0 0.0
2017-Oct-20 17:31N 22°34' E 114°26'0 0.0
2017-Oct-20 17:00N 22°34' E 114°26'0 0.0
2017-Oct-20 16:31N 22°34' E 114°26'0 0.0
2017-Oct-20 16:00N 22°34' E 114°26'0 0.0
2017-Oct-20 15:30N 22°34' E 114°26'0 0.0
2017-Oct-20 15:01N 22°34' E 114°26'0 0.0
2017-Oct-20 14:30N 22°34' E 114°26'0 0.0
2017-Oct-20 13:31N 22°34' E 114°26'0 0.0
2017-Oct-20 13:00N 22°34' E 114°26'0 0.0
2017-Oct-20 12:30N 22°34' E 114°26'0 0.0
2017-Oct-20 12:00N 22°34' E 114°26'0 0.0
2017-Oct-20 11:30N 22°34' E 114°26'0 0.0
2017-Oct-20 11:00N 22°34' E 114°26'0 0.0
2017-Oct-20 10:30N 22°34' E 114°26'0 0.0
2017-Oct-20 10:00N 22°34' E 114°26'0 0.0
2017-Oct-20 09:31N 22°34' E 114°26'0 0.0
2017-Oct-20 09:01N 22°34' E 114°26'0 0.0
2017-Oct-20 08:31N 22°34' E 114°26'0 0.0
2017-Oct-20 08:00N 22°34' E 114°26'0 0.0
2017-Oct-20 07:31N 22°34' E 114°26'0 0.0
2017-Oct-20 07:00N 22°34' E 114°26'0 0.0
2017-Oct-20 06:30N 22°34' E 114°26'0 0.0
2017-Oct-20 06:01N 22°34' E 114°26'0 0.0
2017-Oct-20 05:31N 22°34' E 114°26'0 0.0
2017-Oct-20 05:00N 22°34' E 114°26'0 0.0
2017-Oct-20 04:30N 22°34' E 114°26'0 0.0
2017-Oct-20 04:00N 22°34' E 114°26'0 0.4
2017-Oct-20 03:31N 22°34' E 114°26'1 2.2
2017-Oct-20 03:00N 22°33' E 114°25'2 4.3
2017-Oct-20 02:30N 22°31' E 114°25'4 7.0
2017-Oct-20 02:01N 22°28' E 114°27'4 7.1
2017-Oct-20 01:30N 22°25' E 114°29'4 8.7
2017-Oct-20 01:00N 22°21' E 114°30'510.6
2017-Oct-20 00:31N 22°16' E 114°32'611.1
2017-Oct-20 00:00N 22°11' E 114°32'811.3
2017-Oct-19 23:19N 22°03' E 114°32'411.4
2017-Oct-19 23:00N 21°59' E 114°32'611.5
2017-Oct-19 22:30N 21°53' E 114°31'611.8
2017-Oct-19 21:59N 21°48' E 114°30'611.6
2017-Oct-19 21:29N 21°43' E 114°26'  
Track history (hours):
 
Tides and Currents Weather Stations Pressure Air Temp Water Temp Dewpoint Dewpoint Depression Visibility Wind Speed Wind Dir Waves Ship Positions

Al Rekayyat

Last reported at 2017-Oct-26 18:22 UTC. Time now 2017-Nov-22 05:28 UTC.
Position N 01°21' E 103°16'.
Warning: this ship's position is 26 days out of date.

Length 315 m; draft 9.5 m.

Type: Ship (hazmat cat D). MMSI: 538003347.

Date/timePositionNaut miles runAvg speedWind from/ knotsBaromVisibWave heightAir tempDewpointWater temp
2017-Oct-26 18:22N 01°21' E 103°16'615.6
2017-Oct-26 17:59N 01°17' E 103°21'815.7
2017-Oct-26 17:30N 01°14' E 103°28'713.9
2017-Oct-26 16:59N 01°12' E 103°35'4 8.1
2017-Oct-26 16:30N 01°12' E 103°39'2 2.8
2017-Oct-26 15:56N 01°12' E 103°40'0 0.0
2017-Oct-26 15:30N 01°12' E 103°40'0 0.0
2017-Oct-26 14:57N 01°12' E 103°40'0 0.0
2017-Oct-26 14:30N 01°12' E 103°40'0 0.0
2017-Oct-26 13:58N 01°12' E 103°40'0 0.0
2017-Oct-26 13:28N 01°12' E 103°40'0 0.0
2017-Oct-26 12:58N 01°12' E 103°40'0 0.0
2017-Oct-26 12:29N 01°12' E 103°40'0 0.0
2017-Oct-26 11:59N 01°12' E 103°40'0 0.0
2017-Oct-26 11:29N 01°12' E 103°40'0 0.0
2017-Oct-26 10:57N 01°12' E 103°40'0 0.0
2017-Oct-26 10:30N 01°12' E 103°40'0 0.0
2017-Oct-26 09:54N 01°12' E 103°40'0 0.0
2017-Oct-26 09:31N 01°12' E 103°40'0 0.0
2017-Oct-26 08:55N 01°12' E 103°40'0 0.0
2017-Oct-26 08:25N 01°12' E 103°40'0 0.1
2017-Oct-26 07:59N 01°12' E 103°40'0 0.0
2017-Oct-26 07:29N 01°12' E 103°40'0 0.0
2017-Oct-26 06:59N 01°12' E 103°40'0 0.1
2017-Oct-26 06:30N 01°12' E 103°40'0 0.2
2017-Oct-26 05:54N 01°12' E 103°40'0 0.1
2017-Oct-26 05:30N 01°12' E 103°40'0 0.0
2017-Oct-26 04:57N 01°12' E 103°40'0 0.2
2017-Oct-26 04:22N 01°12' E 103°40'0 0.2
2017-Oct-26 03:58N 01°12' E 103°40'0 0.0
2017-Oct-26 03:28N 01°12' E 103°40'0 0.1
2017-Oct-26 02:56N 01°12' E 103°40'0 0.1
2017-Oct-26 02:29N 01°12' E 103°40'0 0.1
2017-Oct-26 01:56N 01°12' E 103°40'0 0.0
2017-Oct-26 01:27N 01°12' E 103°40'0 0.1
2017-Oct-26 00:54N 01°12' E 103°40'0 0.1
2017-Oct-26 00:30N 01°12' E 103°40'0 0.0
2017-Oct-26 00:00N 01°12' E 103°40'0 0.2
2017-Oct-25 23:30N 01°12' E 103°40'0 0.0
2017-Oct-25 23:00N 01°12' E 103°40'0 0.0
2017-Oct-25 22:30N 01°12' E 103°40'0 0.1
2017-Oct-25 22:00N 01°12' E 103°40'0 0.0
2017-Oct-25 21:30N 01°12' E 103°40'0 0.2
2017-Oct-25 21:00N 01°12' E 103°40'0 0.3
2017-Oct-25 20:30N 01°12' E 103°40'0 0.1
2017-Oct-25 20:01N 01°12' E 103°40'0 0.1
2017-Oct-25 19:30N 01°12' E 103°40'0 0.1
2017-Oct-25 19:00N 01°12' E 103°40'0 0.3
2017-Oct-25 18:30N 01°12' E 103°40'1 2.6
2017-Oct-25 17:59N 01°11' E 103°41'4 8.9
2017-Oct-25 17:30N 01°09' E 103°45'4 8.6
2017-Oct-25 17:01N 01°11' E 103°49'3 6.1
2017-Oct-25 16:30N 01°12' E 103°52'3 6.9
2017-Oct-25 16:00N 01°14' E 103°55'4 8.2
2017-Oct-25 15:30N 01°15' E 103°59'4 8.2
2017-Oct-25 15:00N 01°16' E 104°03'18 8.1
2017-Oct-25 12:49N 01°19' E 104°20'  
2017-Oct-21 12:17N 21°47' E 114°28'516.2
2017-Oct-21 11:59N 21°51' E 114°31'915.4
2017-Oct-21 11:23N 22°00' E 114°31'615.7
2017-Oct-21 11:00N 22°06' E 114°32'816.0
2017-Oct-21 10:30N 22°14' E 114°32'815.7
2017-Oct-21 10:01N 22°22' E 114°30'612.1
2017-Oct-21 09:30N 22°27' E 114°28'5 9.3
2017-Oct-21 09:00N 22°31' E 114°25'3 6.7
2017-Oct-21 08:31N 22°34' E 114°26'0 0.1
2017-Oct-21 08:00N 22°34' E 114°26'0 0.0
2017-Oct-21 07:31N 22°34' E 114°26'0 0.0
2017-Oct-21 07:00N 22°34' E 114°26'0 0.0
2017-Oct-21 06:31N 22°34' E 114°26'0 0.0
2017-Oct-21 06:00N 22°34' E 114°26'0 0.0
2017-Oct-21 05:30N 22°34' E 114°26'0 0.0
2017-Oct-21 05:00N 22°34' E 114°26'0 0.0
2017-Oct-21 04:30N 22°34' E 114°26'0 0.0
2017-Oct-21 04:00N 22°34' E 114°26'0 0.0
2017-Oct-21 03:30N 22°34' E 114°26'0 0.0
2017-Oct-21 03:00N 22°34' E 114°26'0 0.0
2017-Oct-21 02:30N 22°34' E 114°26'0 0.0
2017-Oct-21 02:01N 22°34' E 114°26'0 0.0
2017-Oct-21 01:30N 22°34' E 114°26'0 0.0
2017-Oct-21 01:01N 22°34' E 114°26'0 0.0
2017-Oct-21 00:31N 22°34' E 114°26'0 0.0
2017-Oct-21 00:00N 22°34' E 114°26'0 0.0
2017-Oct-20 23:31N 22°34' E 114°26'0 0.0
2017-Oct-20 23:00N 22°34' E 114°26'0 0.0
2017-Oct-20 22:31N 22°34' E 114°26'0 0.0
2017-Oct-20 22:00N 22°34' E 114°26'0 0.0
2017-Oct-20 21:30N 22°34' E 114°26'0 0.0
2017-Oct-20 21:00N 22°34' E 114°26'0 0.0
2017-Oct-20 20:30N 22°34' E 114°26'0 0.0
2017-Oct-20 20:00N 22°34' E 114°26'0 0.0
2017-Oct-20 19:30N 22°34' E 114°26'0 0.0
2017-Oct-20 19:00N 22°34' E 114°26'0 0.0
2017-Oct-20 18:30N 22°34' E 114°26'0 0.0
2017-Oct-20 18:00N 22°34' E 114°26'0 0.0
2017-Oct-20 17:31N 22°34' E 114°26'0 0.0
2017-Oct-20 17:00N 22°34' E 114°26'0 0.0
2017-Oct-20 16:31N 22°34' E 114°26'0 0.0
2017-Oct-20 16:00N 22°34' E 114°26'0 0.0
2017-Oct-20 15:30N 22°34' E 114°26'0 0.0
2017-Oct-20 15:01N 22°34' E 114°26'0 0.0
2017-Oct-20 14:30N 22°34' E 114°26'0 0.0
2017-Oct-20 13:31N 22°34' E 114°26'0 0.0
2017-Oct-20 13:00N 22°34' E 114°26'0 0.0
2017-Oct-20 12:30N 22°34' E 114°26'0 0.0
2017-Oct-20 12:00N 22°34' E 114°26'0 0.0
2017-Oct-20 11:30N 22°34' E 114°26'0 0.0
2017-Oct-20 11:00N 22°34' E 114°26'0 0.0
2017-Oct-20 10:30N 22°34' E 114°26'0 0.0
2017-Oct-20 10:00N 22°34' E 114°26'0 0.0
2017-Oct-20 09:31N 22°34' E 114°26'0 0.0
2017-Oct-20 09:01N 22°34' E 114°26'0 0.0
2017-Oct-20 08:31N 22°34' E 114°26'0 0.0
2017-Oct-20 08:00N 22°34' E 114°26'0 0.0
2017-Oct-20 07:31N 22°34' E 114°26'0 0.0
2017-Oct-20 07:00N 22°34' E 114°26'0 0.0
2017-Oct-20 06:30N 22°34' E 114°26'0 0.0
2017-Oct-20 06:01N 22°34' E 114°26'0 0.0
2017-Oct-20 05:31N 22°34' E 114°26'0 0.0
2017-Oct-20 05:00N 22°34' E 114°26'0 0.0
2017-Oct-20 04:30N 22°34' E 114°26'0 0.0
2017-Oct-20 04:00N 22°34' E 114°26'0 0.4
2017-Oct-20 03:31N 22°34' E 114°26'1 2.2
2017-Oct-20 03:00N 22°33' E 114°25'2 4.3
2017-Oct-20 02:30N 22°31' E 114°25'4 7.0
2017-Oct-20 02:01N 22°28' E 114°27'4 7.1
2017-Oct-20 01:30N 22°25' E 114°29'4 8.7
2017-Oct-20 01:00N 22°21' E 114°30'510.6
2017-Oct-20 00:31N 22°16' E 114°32'611.1
2017-Oct-20 00:00N 22°11' E 114°32'811.3
2017-Oct-19 23:19N 22°03' E 114°32'411.4
2017-Oct-19 23:00N 21°59' E 114°32'611.5
2017-Oct-19 22:30N 21°53' E 114°31'611.8
2017-Oct-19 21:59N 21°48' E 114°30'611.6
2017-Oct-19 21:29N 21°43' E 114°26'  

Dump ship's entire track history